Bucks Bar, California
Current Conditions -  °F | °C
As of 7:55 AM on Saturday 25 Oct 2014 (Local Time) from KPVF Reporting Station
Overcast Overcast  
Wind Chill: 57°   Ceiling: 6000
Heat Index: 57°   Visibility: 10mi
Dew Point: 41°   Wind: 16mph
Humidity: 55%   Direction: 150°SSE
Pressure: 30.01"   Gusts: 22mph
Location:  38.7308°N, 120.774°W
Report Text: KPVF 251455Z AUTO 15014G19KT 10SM BKN060 OVC070 14/05 A3001 RMK AO1
Loading
Personal Weather Stations






























Interactive Weather Map
Tropical Storm Tracking
New forecast layout! Learn more

10-Day Weather Forecast

Advertisements
Track Severe Weather on mobile